createdAt,value
2017-07-11T00:00:55.605Z,968.10
2017-07-11T00:01:56.296Z,968.12
2017-07-11T00:02:56.987Z,968.14
2017-07-11T00:03:57.679Z,968.15
2017-07-11T00:04:58.366Z,968.12
2017-07-11T00:05:59.054Z,968.16
2017-07-11T00:06:59.993Z,968.15
2017-07-11T00:08:00.679Z,968.19
2017-07-11T00:09:01.367Z,968.16
2017-07-11T00:10:02.057Z,968.14
2017-07-11T00:11:02.740Z,968.11
2017-07-11T00:12:03.685Z,968.05
2017-07-11T00:13:04.375Z,968.01
2017-07-11T00:14:05.069Z,968.03
2017-07-11T00:15:05.755Z,967.99
2017-07-11T00:16:06.442Z,967.90
2017-07-11T00:17:07.381Z,967.93
2017-07-11T00:18:08.070Z,967.96
2017-07-11T00:19:08.814Z,967.96
2017-07-11T00:20:09.453Z,968.01
2017-07-11T00:21:10.139Z,968.04
2017-07-11T00:22:11.073Z,968.01
2017-07-11T00:23:11.771Z,968.05
2017-07-11T00:24:12.465Z,968.03
2017-07-11T00:25:13.150Z,968.01
2017-07-11T00:26:13.834Z,968.04
2017-07-11T00:27:14.774Z,968.07
2017-07-11T00:28:15.461Z,968.04
2017-07-11T00:29:16.156Z,968.07
2017-07-11T00:30:16.847Z,968.07
2017-07-11T00:31:17.538Z,968.05
2017-07-11T00:32:18.481Z,968.04
2017-07-11T00:33:19.172Z,968.01
2017-07-11T00:34:19.858Z,967.99
2017-07-11T00:35:20.548Z,967.99
2017-07-11T00:36:21.235Z,967.92
2017-07-11T00:37:22.168Z,967.94
2017-07-11T00:38:22.856Z,967.99
2017-07-11T00:39:23.547Z,967.96
2017-07-11T00:40:24.239Z,967.96
2017-07-11T00:41:24.927Z,967.95
2017-07-11T00:42:25.869Z,967.92
2017-07-11T00:43:26.561Z,967.92
2017-07-11T00:44:27.245Z,967.87
2017-07-11T00:45:27.934Z,967.88
2017-07-11T00:46:28.621Z,967.86
2017-07-11T00:47:29.560Z,967.82
2017-07-11T00:48:30.258Z,967.77
2017-07-11T00:49:30.947Z,967.75
2017-07-11T00:50:31.636Z,967.72
2017-07-11T00:51:32.328Z,967.73
2017-07-11T00:52:33.268Z,967.77
2017-07-11T00:53:33.959Z,967.78
2017-07-11T00:54:34.651Z,967.78
2017-07-11T00:55:35.340Z,967.77
2017-07-11T00:56:36.026Z,967.78
2017-07-11T00:57:36.973Z,967.78
2017-07-11T00:58:37.663Z,967.82
2017-07-11T00:59:38.353Z,967.86
2017-07-11T01:00:39.041Z,967.80
2017-07-11T01:01:39.734Z,967.77
2017-07-11T01:02:40.669Z,967.81
2017-07-11T01:03:41.362Z,967.78
2017-07-11T01:04:42.046Z,967.76
2017-07-11T01:05:42.732Z,967.73
2017-07-11T01:06:43.417Z,967.68
2017-07-11T01:07:44.356Z,967.69
2017-07-11T01:08:45.043Z,967.66
2017-07-11T01:09:45.731Z,967.64
2017-07-11T01:10:46.419Z,967.61
2017-07-11T01:11:47.103Z,967.61
2017-07-11T01:12:48.044Z,967.62
2017-07-11T01:13:48.732Z,967.62
2017-07-11T01:14:49.418Z,967.60
2017-07-11T01:15:50.111Z,967.61
2017-07-11T01:16:50.801Z,967.67
2017-07-11T01:17:51.740Z,967.76
2017-07-11T01:18:52.429Z,967.79
2017-07-11T01:19:53.117Z,967.83
2017-07-11T01:20:53.809Z,967.82
2017-07-11T01:21:54.501Z,967.81
2017-07-11T01:22:55.444Z,967.84
2017-07-11T01:23:56.133Z,967.87
2017-07-11T01:24:56.831Z,967.84
2017-07-11T01:25:57.520Z,967.89
2017-07-11T01:26:58.209Z,967.91
2017-07-11T01:27:59.217Z,967.91
2017-07-11T01:28:59.848Z,967.90
2017-07-11T01:30:00.530Z,967.93
2017-07-11T01:31:01.218Z,967.84
2017-07-11T01:32:01.918Z,967.81
2017-07-11T01:33:02.856Z,967.83
2017-07-11T01:34:03.546Z,967.73
2017-07-11T01:35:04.234Z,967.69
2017-07-11T01:36:04.938Z,967.61
2017-07-11T01:37:05.632Z,967.59
2017-07-11T01:38:06.569Z,967.55
2017-07-11T01:39:07.254Z,967.50
2017-07-11T01:40:07.944Z,967.49
2017-07-11T01:41:08.629Z,967.47
2017-07-11T01:42:09.319Z,967.46
2017-07-11T01:43:10.259Z,967.53
2017-07-11T01:44:10.948Z,967.58
2017-07-11T01:45:11.634Z,967.67
2017-07-11T01:46:12.319Z,967.76
2017-07-11T01:47:13.007Z,967.75
2017-07-11T01:48:13.945Z,967.80
2017-07-11T01:49:14.638Z,967.78
2017-07-11T01:50:15.324Z,967.72
2017-07-11T01:51:16.009Z,967.72
2017-07-11T01:52:16.702Z,967.72
2017-07-11T01:53:17.642Z,967.73
2017-07-11T01:54:18.331Z,967.67
2017-07-11T01:55:19.017Z,967.73
2017-07-11T01:56:19.706Z,967.62
2017-07-11T01:57:20.396Z,967.59
2017-07-11T01:58:21.338Z,967.60
2017-07-11T01:59:22.030Z,967.67
2017-07-11T02:00:22.721Z,967.71
2017-07-11T02:01:23.408Z,967.78
2017-07-11T02:02:24.096Z,967.85
2017-07-11T02:03:25.042Z,967.89
2017-07-11T02:04:25.725Z,967.85
2017-07-11T02:05:26.411Z,967.84
2017-07-11T02:06:27.105Z,967.80
2017-07-11T02:07:27.793Z,967.78
2017-07-11T02:08:28.730Z,967.80
2017-07-11T02:09:29.420Z,967.77
2017-07-11T02:10:30.108Z,967.78
2017-07-11T02:11:30.795Z,967.77
2017-07-11T02:12:31.485Z,967.74
2017-07-11T02:13:32.427Z,967.68
2017-07-11T02:14:33.117Z,967.71
2017-07-11T02:15:33.802Z,967.75
2017-07-11T02:16:34.493Z,967.74
2017-07-11T02:17:35.183Z,967.78
2017-07-11T02:18:36.119Z,967.77
2017-07-11T02:19:36.805Z,967.81
2017-07-11T02:20:37.493Z,967.86
2017-07-11T02:21:38.182Z,967.83
2017-07-11T02:22:38.873Z,967.79
2017-07-11T02:23:39.814Z,967.82
2017-07-11T02:24:40.507Z,967.80
2017-07-11T02:25:41.194Z,967.86
2017-07-11T02:26:41.879Z,967.83
2017-07-11T02:27:42.571Z,967.85
2017-07-11T02:28:43.507Z,967.84
2017-07-11T02:29:44.195Z,967.84
2017-07-11T02:30:44.880Z,967.80
2017-07-11T02:31:45.567Z,967.86
2017-07-11T02:32:46.254Z,967.82
2017-07-11T02:33:47.192Z,967.83
2017-07-11T02:34:47.879Z,967.89
2017-07-11T02:35:48.566Z,967.91
2017-07-11T02:36:49.253Z,967.84
2017-07-11T02:37:49.942Z,967.90
2017-07-11T02:38:50.881Z,967.87
2017-07-11T02:39:51.567Z,967.81
2017-07-11T02:40:52.255Z,967.85
2017-07-11T02:41:52.943Z,967.85
2017-07-11T02:42:53.629Z,967.89
2017-07-11T02:43:54.565Z,967.86
2017-07-11T02:44:55.251Z,967.92
2017-07-11T02:45:55.936Z,967.80
2017-07-11T02:46:56.622Z,967.83
2017-07-11T02:47:57.309Z,967.85
2017-07-11T02:48:58.250Z,967.81
2017-07-11T02:49:58.938Z,967.79
2017-07-11T02:50:59.624Z,967.81
2017-07-11T02:52:00.310Z,967.80
2017-07-11T02:53:01.004Z,967.83
2017-07-11T02:54:01.942Z,967.83
2017-07-11T02:55:02.627Z,967.79
2017-07-11T02:56:03.321Z,967.87
2017-07-11T02:57:04.010Z,967.81
2017-07-11T02:58:04.702Z,967.78
2017-07-11T02:59:05.389Z,967.80
2017-07-11T03:00:06.069Z,967.76
2017-07-11T03:01:06.754Z,967.80
2017-07-11T03:02:07.446Z,967.81
2017-07-11T03:03:08.133Z,967.79
2017-07-11T03:04:09.072Z,967.78
2017-07-11T03:05:09.760Z,967.83
2017-07-11T03:06:10.459Z,967.81
2017-07-11T03:07:11.144Z,967.86
2017-07-11T03:08:11.836Z,967.92
2017-07-11T03:09:12.773Z,967.85
2017-07-11T03:10:13.460Z,967.80
2017-07-11T03:11:14.146Z,967.85
2017-07-11T03:12:14.833Z,967.85
2017-07-11T03:13:15.525Z,967.86
2017-07-11T03:14:16.468Z,967.85
2017-07-11T03:15:17.159Z,967.82
2017-07-11T03:16:17.842Z,967.84
2017-07-11T03:17:18.525Z,967.84
2017-07-11T03:18:19.213Z,967.87
2017-07-11T03:19:20.159Z,967.89
2017-07-11T03:20:20.851Z,967.88
2017-07-11T03:21:21.541Z,967.92
2017-07-11T03:22:22.232Z,967.88
2017-07-11T03:23:22.923Z,967.85
2017-07-11T03:24:23.861Z,967.87
2017-07-11T03:25:24.549Z,967.82
2017-07-11T03:26:25.234Z,967.84
2017-07-11T03:27:25.924Z,967.91
2017-07-11T03:28:26.609Z,967.95
2017-07-11T03:29:27.547Z,967.93
2017-07-11T03:30:28.233Z,967.91
2017-07-11T03:31:28.923Z,967.89
2017-07-11T03:32:29.610Z,967.85
2017-07-11T03:33:30.303Z,967.86
2017-07-11T03:34:31.242Z,967.91
2017-07-11T03:35:31.931Z,967.89
2017-07-11T03:36:32.618Z,967.95
2017-07-11T03:37:33.312Z,968.02
2017-07-11T03:38:34.002Z,967.97
2017-07-11T03:39:34.944Z,968.00
2017-07-11T03:40:35.637Z,968.01
2017-07-11T03:41:36.322Z,968.03
2017-07-11T03:42:37.013Z,968.05
2017-07-11T03:43:37.701Z,968.01
2017-07-11T03:44:38.388Z,968.17
2017-07-11T03:45:39.075Z,968.06
2017-07-11T03:46:39.768Z,968.17
2017-07-11T03:47:40.460Z,968.10
2017-07-11T03:48:41.146Z,968.21
2017-07-11T03:49:42.082Z,968.21
2017-07-11T03:50:42.775Z,968.12
2017-07-11T03:51:43.466Z,968.15
2017-07-11T03:52:44.152Z,968.17
2017-07-11T03:53:44.853Z,968.18
2017-07-11T03:54:45.788Z,968.18
2017-07-11T03:55:46.476Z,968.18
2017-07-11T03:56:47.167Z,968.19
2017-07-11T03:57:47.855Z,968.21
2017-07-11T03:58:48.543Z,968.25
2017-07-11T03:59:49.485Z,968.22
2017-07-11T04:00:50.171Z,968.28
2017-07-11T04:01:50.865Z,968.25
2017-07-11T04:02:51.560Z,968.29
2017-07-11T04:03:52.252Z,968.27
2017-07-11T04:04:53.200Z,968.30
2017-07-11T04:05:53.885Z,968.29
2017-07-11T04:06:54.577Z,968.27
2017-07-11T04:07:55.268Z,968.28
2017-07-11T04:08:55.960Z,968.33
2017-07-11T04:09:56.904Z,968.30
2017-07-11T04:10:57.593Z,968.31
2017-07-11T04:11:58.288Z,968.32
2017-07-11T04:12:58.979Z,968.29
2017-07-11T04:13:59.669Z,968.39
2017-07-11T04:15:00.612Z,968.37
2017-07-11T04:16:01.302Z,968.43
2017-07-11T04:17:01.995Z,968.44
2017-07-11T04:18:02.691Z,968.46
2017-07-11T04:19:03.387Z,968.45
2017-07-11T04:20:04.331Z,968.51
2017-07-11T04:21:05.022Z,968.51
2017-07-11T04:22:05.712Z,968.52
2017-07-11T04:23:06.407Z,968.52
2017-07-11T04:24:07.099Z,968.50
2017-07-11T04:25:08.050Z,968.56
2017-07-11T04:26:08.744Z,968.60
2017-07-11T04:27:09.435Z,968.64
2017-07-11T04:28:10.126Z,968.60
2017-07-11T04:29:10.818Z,968.60
2017-07-11T04:30:11.510Z,968.63
2017-07-11T04:31:12.201Z,968.63
2017-07-11T04:32:12.895Z,968.63
2017-07-11T04:33:13.594Z,968.69
2017-07-11T04:34:14.289Z,968.67
2017-07-11T04:35:15.237Z,968.67
2017-07-11T04:36:15.926Z,968.73
2017-07-11T04:37:16.622Z,968.75
2017-07-11T04:38:17.315Z,968.75
2017-07-11T04:39:18.011Z,968.72
2017-07-11T04:40:18.954Z,968.72
2017-07-11T04:41:19.646Z,968.80
2017-07-11T04:42:20.338Z,968.78
2017-07-11T04:43:21.027Z,968.80
2017-07-11T04:44:21.718Z,968.77
2017-07-11T04:45:22.659Z,968.77
2017-07-11T04:46:23.351Z,968.76
2017-07-11T04:47:24.041Z,968.77
2017-07-11T04:48:24.736Z,968.76
2017-07-11T04:49:25.429Z,968.76
2017-07-11T04:50:26.370Z,968.75
2017-07-11T04:51:27.059Z,968.79
2017-07-11T04:52:27.753Z,968.78
2017-07-11T04:53:28.446Z,968.78
2017-07-11T04:54:29.140Z,968.79
2017-07-11T04:55:30.080Z,968.76
2017-07-11T04:56:30.772Z,968.83
2017-07-11T04:57:31.464Z,968.83
2017-07-11T04:58:32.155Z,968.82
2017-07-11T04:59:32.847Z,968.76
2017-07-11T05:00:33.789Z,968.81
2017-07-11T05:01:34.483Z,968.85
2017-07-11T05:02:35.173Z,968.79
2017-07-11T05:03:35.864Z,968.82
2017-07-11T05:04:36.559Z,968.84
2017-07-11T05:05:37.505Z,968.79
2017-07-11T05:06:38.207Z,968.82
2017-07-11T05:07:38.897Z,968.88
2017-07-11T05:08:39.592Z,968.88
2017-07-11T05:09:40.285Z,968.84
2017-07-11T05:10:41.226Z,968.87
2017-07-11T05:11:41.915Z,968.86
2017-07-11T05:12:42.607Z,968.91
2017-07-11T05:13:43.303Z,968.94
2017-07-11T05:14:43.993Z,968.96
2017-07-11T05:15:44.683Z,968.97
2017-07-11T05:16:45.372Z,968.94
2017-07-11T05:17:46.068Z,969.00
2017-07-11T05:18:46.762Z,968.96
2017-07-11T05:19:47.453Z,969.02
2017-07-11T05:20:48.403Z,968.92
2017-07-11T05:21:49.101Z,968.98
2017-07-11T05:22:49.792Z,968.93
2017-07-11T05:23:50.481Z,969.00
2017-07-11T05:24:51.171Z,968.98
2017-07-11T05:25:52.113Z,968.96
2017-07-11T05:26:52.804Z,968.99
2017-07-11T05:27:53.496Z,969.01
2017-07-11T05:28:54.184Z,969.06
2017-07-11T05:29:54.873Z,969.01
2017-07-11T05:30:55.845Z,969.06
2017-07-11T05:31:56.536Z,969.09
2017-07-11T05:32:57.228Z,969.06
2017-07-11T05:33:57.917Z,969.08
2017-07-11T05:34:58.604Z,969.03
2017-07-11T05:35:59.542Z,969.14
2017-07-11T05:37:00.232Z,969.07
2017-07-11T05:38:00.937Z,969.13
2017-07-11T05:39:01.627Z,969.15
2017-07-11T05:40:02.317Z,969.11
2017-07-11T05:41:03.254Z,969.16
2017-07-11T05:42:03.945Z,969.14
2017-07-11T05:43:04.636Z,969.17
2017-07-11T05:44:05.329Z,969.17
2017-07-11T05:45:06.023Z,969.20
2017-07-11T05:46:06.981Z,969.15
2017-07-11T05:47:07.677Z,969.17
2017-07-11T05:48:08.379Z,969.13
2017-07-11T05:49:09.081Z,969.09
2017-07-11T05:50:09.771Z,969.17
2017-07-11T05:51:10.713Z,969.21
2017-07-11T05:52:11.403Z,969.17
2017-07-11T05:53:12.100Z,969.20
2017-07-11T05:54:12.789Z,969.21
2017-07-11T05:55:13.483Z,969.24
2017-07-11T05:56:14.424Z,969.25
2017-07-11T05:57:15.117Z,969.23
2017-07-11T05:58:15.810Z,969.28
2017-07-11T05:59:16.507Z,969.24
2017-07-11T06:00:17.200Z,969.27
2017-07-11T06:01:17.894Z,969.27
2017-07-11T06:02:18.594Z,969.28
2017-07-11T06:03:19.294Z,969.29
2017-07-11T06:04:19.983Z,969.34
2017-07-11T06:05:20.676Z,969.25
2017-07-11T06:06:21.370Z,969.29
2017-07-11T06:07:22.065Z,969.20
2017-07-11T06:08:22.759Z,969.27
2017-07-11T06:09:23.456Z,969.26
2017-07-11T06:10:24.149Z,969.23
2017-07-11T06:11:25.091Z,969.22
2017-07-11T06:12:25.779Z,969.23
2017-07-11T06:13:26.473Z,969.20
2017-07-11T06:14:27.164Z,969.28
2017-07-11T06:15:27.856Z,969.26
2017-07-11T06:16:28.798Z,969.26
2017-07-11T06:17:29.490Z,969.28
2017-07-11T06:18:30.186Z,969.24
2017-07-11T06:19:30.892Z,969.29
2017-07-11T06:20:31.589Z,969.25
2017-07-11T06:21:32.541Z,969.27
2017-07-11T06:22:33.228Z,969.21
2017-07-11T06:23:33.924Z,969.33
2017-07-11T06:24:34.618Z,969.29
2017-07-11T06:25:35.306Z,969.31
2017-07-11T06:26:36.250Z,969.28
2017-07-11T06:27:36.941Z,969.24
2017-07-11T06:28:37.635Z,969.22
2017-07-11T06:29:38.323Z,969.22
2017-07-11T06:30:39.017Z,969.26
2017-07-11T06:31:39.961Z,969.26
2017-07-11T06:32:40.652Z,969.25
2017-07-11T06:33:41.344Z,969.26
2017-07-11T06:34:42.041Z,969.28
2017-07-11T06:35:42.743Z,969.29
2017-07-11T06:36:43.687Z,969.27
2017-07-11T06:37:44.379Z,969.28
2017-07-11T06:38:45.071Z,969.23
2017-07-11T06:39:45.764Z,969.23
2017-07-11T06:40:46.456Z,969.26
2017-07-11T06:41:47.401Z,969.25
2017-07-11T06:42:48.106Z,969.25
2017-07-11T06:43:48.806Z,969.24
2017-07-11T06:44:49.502Z,969.31
2017-07-11T06:45:50.197Z,969.28
2017-07-11T06:46:51.145Z,969.31
2017-07-11T06:47:51.843Z,969.36
2017-07-11T06:48:52.533Z,969.34
2017-07-11T06:49:53.229Z,969.30
2017-07-11T06:50:53.922Z,969.42
2017-07-11T06:51:54.864Z,969.33
2017-07-11T06:52:55.562Z,969.33
2017-07-11T06:53:56.251Z,969.40
2017-07-11T06:54:56.949Z,969.32
2017-07-11T06:55:57.645Z,969.40
2017-07-11T06:56:58.594Z,969.39
2017-07-11T06:57:59.286Z,969.41
2017-07-11T06:58:59.976Z,969.46
2017-07-11T07:00:00.672Z,969.43
2017-07-11T07:01:01.364Z,969.42
2017-07-11T07:02:02.310Z,969.43
2017-07-11T07:03:03.005Z,969.41
2017-07-11T07:04:03.699Z,969.41
2017-07-11T07:05:04.407Z,969.40
2017-07-11T07:06:05.109Z,969.44
2017-07-11T07:07:06.053Z,969.45
2017-07-11T07:08:06.746Z,969.48
2017-07-11T07:09:07.441Z,969.53
2017-07-11T07:10:08.137Z,969.53
2017-07-11T07:11:08.836Z,969.50
2017-07-11T07:12:09.784Z,969.52
2017-07-11T07:13:10.484Z,969.51
2017-07-11T07:14:11.172Z,969.55
2017-07-11T07:15:11.866Z,969.51
2017-07-11T07:16:12.569Z,969.53
2017-07-11T07:17:13.516Z,969.55
2017-07-11T07:18:14.211Z,969.57
2017-07-11T07:19:14.915Z,969.53
2017-07-11T07:20:15.606Z,969.53
2017-07-11T07:21:16.295Z,969.57
2017-07-11T07:22:17.240Z,969.56
2017-07-11T07:23:17.935Z,969.59
2017-07-11T07:24:18.647Z,969.57
2017-07-11T07:25:19.339Z,969.59
2017-07-11T07:26:20.032Z,969.70
2017-07-11T07:27:20.977Z,969.69
2017-07-11T07:28:21.669Z,969.75
2017-07-11T07:29:22.362Z,969.73
2017-07-11T07:30:23.060Z,969.76
2017-07-11T07:31:23.755Z,969.63
2017-07-11T07:32:24.706Z,969.64
2017-07-11T07:33:25.404Z,969.65
2017-07-11T07:34:26.092Z,969.70
2017-07-11T07:35:26.787Z,969.69
2017-07-11T07:36:27.479Z,969.68
2017-07-11T07:37:28.175Z,969.74
2017-07-11T07:38:28.867Z,969.60
2017-07-11T07:39:29.561Z,969.64
2017-07-11T07:40:30.251Z,969.67
2017-07-11T07:41:30.951Z,969.61
2017-07-11T07:42:31.902Z,969.67
2017-07-11T07:43:32.644Z,969.63
2017-07-11T07:44:33.292Z,969.72
2017-07-11T07:45:33.983Z,969.66
2017-07-11T07:46:34.676Z,969.69
2017-07-11T07:47:35.618Z,969.64
2017-07-11T07:48:36.308Z,969.68
2017-07-11T07:49:37.010Z,969.61
2017-07-11T07:50:37.706Z,969.71
2017-07-11T07:51:38.401Z,969.72
2017-07-11T07:52:39.346Z,969.72
2017-07-11T07:53:40.041Z,969.68
2017-07-11T07:54:40.738Z,969.72
2017-07-11T07:55:41.435Z,969.80
2017-07-11T07:56:42.139Z,969.72
2017-07-11T07:57:43.088Z,969.81
2017-07-11T07:58:43.774Z,969.85
2017-07-11T07:59:44.469Z,969.86
2017-07-11T08:00:45.162Z,969.82
2017-07-11T08:01:45.856Z,969.84
2017-07-11T08:02:46.803Z,969.82
2017-07-11T08:03:47.498Z,969.89
2017-07-11T08:04:48.188Z,969.82
2017-07-11T08:05:48.882Z,969.87
2017-07-11T08:06:49.575Z,969.84
2017-07-11T08:07:50.522Z,969.80
2017-07-11T08:08:51.212Z,969.84
2017-07-11T08:09:51.908Z,969.77
2017-07-11T08:10:52.609Z,969.79
2017-07-11T08:11:53.312Z,969.73
2017-07-11T08:12:54.257Z,969.76
2017-07-11T08:13:54.959Z,969.74
2017-07-11T08:14:55.659Z,969.74
2017-07-11T08:15:56.357Z,969.71
2017-07-11T08:16:57.052Z,969.67
2017-07-11T08:17:57.997Z,969.67
2017-07-11T08:18:58.693Z,969.62
2017-07-11T08:19:59.387Z,969.63
2017-07-11T08:21:00.086Z,969.74
2017-07-11T08:22:00.780Z,969.70
2017-07-11T08:23:01.723Z,969.70
2017-07-11T08:24:02.414Z,969.76
2017-07-11T08:25:03.108Z,969.74
2017-07-11T08:26:03.801Z,969.80
2017-07-11T08:27:04.497Z,969.82
2017-07-11T08:28:05.190Z,969.82
2017-07-11T08:29:05.892Z,969.86
2017-07-11T08:30:06.585Z,969.90
2017-07-11T08:31:07.283Z,969.88
2017-07-11T08:32:07.978Z,969.82
2017-07-11T08:33:08.923Z,969.93
2017-07-11T08:34:09.620Z,969.94
2017-07-11T08:35:10.323Z,969.90
2017-07-11T08:36:11.016Z,969.88
2017-07-11T08:37:11.719Z,969.85
2017-07-11T08:38:12.419Z,969.80
2017-07-11T08:39:13.118Z,969.95
2017-07-11T08:40:13.817Z,969.85
2017-07-11T08:41:14.507Z,969.91
2017-07-11T08:42:15.205Z,969.84
2017-07-11T08:43:16.146Z,969.84
2017-07-11T08:44:16.840Z,969.92
2017-07-11T08:45:17.533Z,969.84
2017-07-11T08:46:18.225Z,969.88
2017-07-11T08:47:18.918Z,969.87
2017-07-11T08:48:19.862Z,969.92
2017-07-11T08:49:20.553Z,969.97
2017-07-11T08:50:21.249Z,969.93
2017-07-11T08:51:21.944Z,969.96
2017-07-11T08:52:22.645Z,969.92
2017-07-11T08:53:23.585Z,969.86
2017-07-11T08:54:24.277Z,969.86
2017-07-11T08:55:24.980Z,969.84
2017-07-11T08:56:25.676Z,969.87
2017-07-11T08:57:26.368Z,969.82
2017-07-11T08:58:27.317Z,969.83
2017-07-11T08:59:28.013Z,969.81
2017-07-11T09:00:28.707Z,969.88
2017-07-11T09:01:29.406Z,969.83
2017-07-11T09:02:30.104Z,969.82
2017-07-11T09:03:31.046Z,969.90
2017-07-11T09:04:31.739Z,969.92
2017-07-11T09:05:32.432Z,970.00
2017-07-11T09:06:33.129Z,969.90
2017-07-11T09:07:33.826Z,969.92
2017-07-11T09:08:34.526Z,969.86
2017-07-11T09:09:35.216Z,969.84
2017-07-11T09:10:35.911Z,969.85
2017-07-11T09:11:36.608Z,969.90
2017-07-11T09:12:37.296Z,969.88
2017-07-11T09:13:38.246Z,969.77
2017-07-11T09:14:38.939Z,969.78
2017-07-11T09:15:39.638Z,969.80
2017-07-11T09:16:40.334Z,969.84
2017-07-11T09:17:41.032Z,969.82
2017-07-11T09:18:41.977Z,969.91
2017-07-11T09:19:42.674Z,969.81
2017-07-11T09:20:43.367Z,969.91
2017-07-11T09:21:44.063Z,969.81
2017-07-11T09:22:44.758Z,969.80
2017-07-11T09:23:45.705Z,969.81
2017-07-11T09:24:46.401Z,969.81
2017-07-11T09:25:47.094Z,969.90
2017-07-11T09:26:47.789Z,969.83
2017-07-11T09:27:48.493Z,969.89
2017-07-11T09:28:49.435Z,969.92
2017-07-11T09:29:50.126Z,969.91
2017-07-11T09:30:50.819Z,969.89
2017-07-11T09:31:51.524Z,969.93
2017-07-11T09:32:52.218Z,969.89
2017-07-11T09:33:53.163Z,969.95
2017-07-11T09:34:53.857Z,969.90
2017-07-11T09:35:54.552Z,969.92
2017-07-11T09:36:55.250Z,969.94
2017-07-11T09:37:55.945Z,969.92
2017-07-11T09:38:56.892Z,969.93
2017-07-11T09:39:57.588Z,969.92
2017-07-11T09:40:58.288Z,969.94
2017-07-11T09:41:58.979Z,969.91
2017-07-11T09:42:59.677Z,969.90
2017-07-11T09:44:00.624Z,969.86
2017-07-11T09:45:01.324Z,969.90
2017-07-11T09:46:02.017Z,969.91
2017-07-11T09:47:02.714Z,969.95
2017-07-11T09:48:03.406Z,969.99
2017-07-11T09:49:04.347Z,969.96
2017-07-11T09:50:05.052Z,969.95
2017-07-11T09:51:05.747Z,970.06
2017-07-11T09:52:06.449Z,969.95
2017-07-11T09:53:07.147Z,969.97
2017-07-11T09:54:08.092Z,970.02
2017-07-11T09:55:08.784Z,970.01
2017-07-11T09:56:09.476Z,970.02
2017-07-11T09:57:10.172Z,969.97
2017-07-11T09:58:10.867Z,970.04
2017-07-11T09:59:11.811Z,969.96
2017-07-11T10:00:12.510Z,969.96
2017-07-11T10:01:13.214Z,970.03
2017-07-11T10:02:13.914Z,969.95
2017-07-11T10:03:14.611Z,969.99
2017-07-11T10:04:15.568Z,970.07
2017-07-11T10:05:16.262Z,969.97
2017-07-11T10:06:16.958Z,969.98
2017-07-11T10:07:17.653Z,970.04
2017-07-11T10:08:18.355Z,969.97
2017-07-11T10:09:19.298Z,970.08
2017-07-11T10:10:19.996Z,970.03
2017-07-11T10:11:20.694Z,970.02
2017-07-11T10:12:21.389Z,970.03
2017-07-11T10:13:22.085Z,970.02
2017-07-11T10:14:23.031Z,970.04
2017-07-11T10:15:23.721Z,970.05
2017-07-11T10:16:24.427Z,970.00
2017-07-11T10:17:25.117Z,969.96
2017-07-11T10:18:25.812Z,969.99
2017-07-11T10:19:26.757Z,970.02
2017-07-11T10:20:27.456Z,969.98
2017-07-11T10:21:28.150Z,969.97
2017-07-11T10:22:28.843Z,970.01
2017-07-11T10:23:29.534Z,970.04
2017-07-11T10:24:30.490Z,969.99
2017-07-11T10:25:31.185Z,969.98
2017-07-11T10:26:31.883Z,970.00
2017-07-11T10:27:32.581Z,970.00
2017-07-11T10:28:33.274Z,970.02
2017-07-11T10:29:34.224Z,970.01
2017-07-11T10:30:34.920Z,969.99
2017-07-11T10:31:35.618Z,970.01
2017-07-11T10:32:36.317Z,970.03
2017-07-11T10:33:37.021Z,969.98
2017-07-11T10:34:37.977Z,969.94
2017-07-11T10:35:38.674Z,969.88
2017-07-11T10:36:39.369Z,969.90
2017-07-11T10:37:40.066Z,969.91
2017-07-11T10:38:40.761Z,969.89
2017-07-11T10:39:41.706Z,969.85
2017-07-11T10:40:42.411Z,969.91
2017-07-11T10:41:43.104Z,969.88
2017-07-11T10:42:43.805Z,969.93
2017-07-11T10:43:44.508Z,969.88
2017-07-11T10:44:45.452Z,969.91
2017-07-11T10:45:46.147Z,969.94
2017-07-11T10:46:46.851Z,969.90
2017-07-11T10:47:47.544Z,969.90
2017-07-11T10:48:48.247Z,969.86
2017-07-11T10:49:49.200Z,969.87
2017-07-11T10:50:49.898Z,969.86
2017-07-11T10:51:50.597Z,969.81
2017-07-11T10:52:51.295Z,969.83
2017-07-11T10:53:51.994Z,969.84
2017-07-11T10:54:52.937Z,969.87
2017-07-11T10:55:53.633Z,969.98
2017-07-11T10:56:54.334Z,969.96
2017-07-11T10:57:55.028Z,969.90
2017-07-11T10:58:55.719Z,969.93
2017-07-11T10:59:56.669Z,969.86
2017-07-11T11:00:57.367Z,969.91
2017-07-11T11:01:58.069Z,969.88
2017-07-11T11:02:58.774Z,969.88
2017-07-11T11:03:59.470Z,969.86
2017-07-11T11:05:00.419Z,969.98
2017-07-11T11:06:01.120Z,970.01
2017-07-11T11:07:01.818Z,970.04
2017-07-11T11:08:02.515Z,970.02
2017-07-11T11:09:03.213Z,970.05
2017-07-11T11:10:04.162Z,970.11
2017-07-11T11:11:04.842Z,970.06
2017-07-11T11:12:05.551Z,969.98
2017-07-11T11:13:06.251Z,970.04
2017-07-11T11:14:06.954Z,970.02
2017-07-11T11:15:07.917Z,970.06
2017-07-11T11:16:08.611Z,970.12
2017-07-11T11:17:09.311Z,970.13
2017-07-11T11:18:10.008Z,970.14
2017-07-11T11:19:10.713Z,970.12
2017-07-11T11:20:11.668Z,970.11
2017-07-11T11:21:12.366Z,970.10
2017-07-11T11:22:13.066Z,970.10
2017-07-11T11:23:13.761Z,970.04
2017-07-11T11:24:14.456Z,970.02
2017-07-11T11:25:15.404Z,969.99
2017-07-11T11:26:16.106Z,969.98
2017-07-11T11:27:16.810Z,969.96
2017-07-11T11:28:17.512Z,969.96
2017-07-11T11:29:18.208Z,969.97
2017-07-11T11:30:19.151Z,969.91
2017-07-11T11:31:19.856Z,969.92
2017-07-11T11:32:20.559Z,969.93
2017-07-11T11:33:21.269Z,969.94
2017-07-11T11:34:21.964Z,969.94
2017-07-11T11:35:22.908Z,969.94
2017-07-11T11:36:23.606Z,969.91
2017-07-11T11:37:24.304Z,969.88
2017-07-11T11:38:25.002Z,969.92
2017-07-11T11:39:25.701Z,969.86
2017-07-11T11:40:26.654Z,969.89
2017-07-11T11:41:27.350Z,969.89
2017-07-11T11:42:28.047Z,969.85
2017-07-11T11:43:28.744Z,969.95
2017-07-11T11:44:29.439Z,969.85
2017-07-11T11:45:30.391Z,969.92
2017-07-11T11:46:31.093Z,969.87
2017-07-11T11:47:31.791Z,969.88
2017-07-11T11:48:32.487Z,969.87
2017-07-11T11:49:33.190Z,969.95
2017-07-11T11:50:34.137Z,969.94
2017-07-11T11:51:34.834Z,969.91
2017-07-11T11:52:35.538Z,969.95
2017-07-11T11:53:36.247Z,969.94
2017-07-11T11:54:36.942Z,969.91
2017-07-11T11:55:37.895Z,969.89
2017-07-11T11:56:38.599Z,969.94
2017-07-11T11:57:39.298Z,969.97
2017-07-11T11:58:39.996Z,969.95
2017-07-11T11:59:40.694Z,969.95
2017-07-11T12:00:41.641Z,970.03
2017-07-11T12:01:42.342Z,970.07
2017-07-11T12:02:43.038Z,970.00
2017-07-11T12:03:43.733Z,970.04
2017-07-11T12:04:44.431Z,970.03
2017-07-11T12:05:45.127Z,970.08
2017-07-11T12:06:45.837Z,970.06
2017-07-11T12:07:46.547Z,969.95
2017-07-11T12:08:47.255Z,969.94
2017-07-11T12:09:47.962Z,969.89
2017-07-11T12:10:48.913Z,969.90
2017-07-11T12:11:49.619Z,969.81
2017-07-11T12:12:50.314Z,969.87
2017-07-11T12:13:51.012Z,969.91
2017-07-11T12:14:51.706Z,969.90
2017-07-11T12:15:52.653Z,969.91
2017-07-11T12:16:53.350Z,969.93
2017-07-11T12:17:54.045Z,969.97
2017-07-11T12:18:54.742Z,969.89
2017-07-11T12:19:55.438Z,969.94
2017-07-11T12:20:56.389Z,969.98
2017-07-11T12:21:57.087Z,969.99
2017-07-11T12:22:57.781Z,969.97
2017-07-11T12:23:58.482Z,969.97
2017-07-11T12:24:59.184Z,969.92
2017-07-11T12:26:00.132Z,969.97
2017-07-11T12:27:00.831Z,969.97
2017-07-11T12:28:01.534Z,969.99
2017-07-11T12:29:02.231Z,969.98
2017-07-11T12:30:02.949Z,970.01
2017-07-11T12:31:03.886Z,970.01
2017-07-11T12:32:04.599Z,970.00
2017-07-11T12:33:05.285Z,969.92
2017-07-11T12:34:05.981Z,969.95
2017-07-11T12:35:06.688Z,970.00
2017-07-11T12:36:07.637Z,969.97
2017-07-11T12:37:08.340Z,969.98
2017-07-11T12:38:09.032Z,969.96